Time;durP1;ratioP1;P1;durP2;ratioP2;P2;SDS_P1;SDS_P2;PMS_P1;PMS_P2;Temp;Humidity;BMP_temperature;BMP_pressure;BME280_temperature;BME280_humidity;BME280_pressure;Samples;Min_cycle;Max_cycle;Signal;HPM_P1;HPM_P2
2022/03/19 00:00:49;;;;;;;;;56.20;42.00;;;;;7.70;25.42;101188.72;6310924;27;97361;-67
2022/03/19 00:03:55;;;;;;;;;54.60;43.00;;;;;7.74;25.70;101192.81;6293665;27;96566;-65
2022/03/19 00:06:58;;;;;;;;;52.00;42.00;;;;;7.71;25.63;101190.44;6293884;27;97733;-66
2022/03/19 00:10:04;;;;;;;;;55.00;43.00;;;;;7.65;25.88;101182.09;6312549;27;97513;-66
2022/03/19 00:13:07;;;;;;;;;55.60;43.00;;;;;7.66;25.81;101189.16;6311992;27;96449;-66
2022/03/19 00:16:10;;;;;;;;;57.40;44.80;;;;;7.62;25.83;101187.78;6294292;27;97608;-66
2022/03/19 00:19:15;;;;;;;;;56.00;44.00;;;;;7.61;25.73;101186.09;6312275;27;97352;-66
2022/03/19 00:22:18;;;;;;;;;53.00;42.50;;;;;7.52;25.93;101179.75;6311989;27;97372;-67
2022/03/19 00:25:21;;;;;;;;;57.60;44.60;;;;;7.41;25.98;101185.28;6311680;27;96770;-65
2022/03/19 00:28:24;;;;;;;;;55.40;44.40;;;;;7.45;26.33;101185.84;6311911;27;96746;-67
2022/03/19 00:31:32;;;;;;;;;57.00;46.00;;;;;7.48;26.07;101181.00;6293680;27;96438;-65
2022/03/19 00:34:37;;;;;;;;;57.00;44.00;;;;;7.40;26.23;101178.22;6311928;27;97047;-66
2022/03/19 00:37:44;;;;;;;;;55.40;43.20;;;;;7.36;26.08;101174.16;6296267;27;97472;-67
2022/03/19 00:40:49;;;;;;;;;58.00;44.00;;;;;7.32;26.18;101172.75;6316512;27;96979;-67
2022/03/19 00:43:52;;;;;;;;;60.20;46.00;;;;;7.36;26.18;101171.47;6316752;27;96483;-67
2022/03/19 00:46:56;;;;;;;;;61.00;46.00;;;;;7.32;26.33;101170.06;6314307;27;97181;-65
2022/03/19 00:50:00;;;;;;;;;61.00;45.50;;;;;7.28;26.42;101176.72;6278454;27;96980;-66
2022/03/19 00:53:04;;;;;;;;;56.40;45.20;;;;;7.26;26.35;101170.63;6295834;27;97098;-67
2022/03/19 00:56:07;;;;;;;;;57.20;45.00;;;;;7.24;26.47;101167.25;6314680;27;97459;-66
2022/03/19 00:59:11;;;;;;;;;57.00;45.00;;;;;7.18;26.41;101159.78;6295265;27;97241;-65
2022/03/19 01:02:14;;;;;;;;;57.50;44.00;;;;;7.12;26.19;101160.38;6315317;27;97426;-67
2022/03/19 01:05:19;;;;;;;;;58.00;46.00;;;;;7.14;26.07;101153.84;6296954;27;96617;-66
2022/03/19 01:08:23;;;;;;;;;59.60;45.60;;;;;7.08;26.56;101149.09;6316245;27;97241;-66
2022/03/19 01:11:26;;;;;;;;;57.33;45.00;;;;;7.06;26.61;101144.84;6315951;27;96768;-66
2022/03/19 01:14:30;;;;;;;;;56.00;45.00;;;;;7.02;26.52;101146.13;6296992;27;98479;-66
2022/03/19 01:17:33;;;;;;;;;58.00;46.00;;;;;6.94;26.52;101146.81;6297453;27;96866;-67
2022/03/19 01:20:38;;;;;;;;;58.67;44.67;;;;;6.83;26.73;101145.16;6315779;27;96905;-65
2022/03/19 01:23:41;;;;;;;;;57.50;45.50;;;;;6.79;26.68;101142.91;6313097;27;99731;-66
2022/03/19 01:26:44;;;;;;;;;60.50;46.00;;;;;6.75;26.65;101154.88;6296381;27;97254;-67
2022/03/19 01:29:48;;;;;;;;;58.60;45.20;;;;;6.76;26.83;101151.22;6297295;27;97155;-65
2022/03/19 01:32:51;;;;;;;;;61.00;46.00;;;;;6.74;26.87;101147.84;6315506;27;97425;-66
2022/03/19 01:35:56;;;;;;;;;59.00;45.00;;;;;6.55;26.98;101116.53;6296505;27;96462;-65
2022/03/19 01:38:59;;;;;;;;;60.60;45.60;;;;;6.71;26.70;101146.28;6314707;27;96933;-67
2022/03/19 01:42:04;;;;;;;;;59.80;46.00;;;;;6.61;27.32;101145.44;6314957;27;96745;-66
2022/03/19 01:45:11;;;;;;;;;62.00;46.80;;;;;6.61;26.92;101144.59;6315211;27;96551;-65
2022/03/19 01:48:14;;;;;;;;;61.40;47.00;;;;;6.58;27.34;101147.56;6295989;27;97011;-66
2022/03/19 01:51:18;;;;;;;;;61.80;48.00;;;;;6.49;27.50;101134.03;6287270;27;97330;-67
2022/03/19 01:54:28;;;;;;;;;62.20;47.80;;;;;6.43;27.83;101128.38;6269916;27;99554;-68
2022/03/19 01:57:35;;;;;;;;;61.60;46.60;;;;;6.37;27.75;101124.44;6275449;27;97100;-66
2022/03/19 02:00:43;;;;;;;;;62.50;47.00;;;;;6.34;28.04;101126.56;6278501;27;97721;-65
2022/03/19 02:03:46;;;;;;;;;61.80;48.20;;;;;6.32;27.90;101125.84;6314635;27;97266;-66
2022/03/19 02:06:51;;;;;;;;;58.20;44.80;;;;;6.25;28.03;101114.00;6295651;27;97192;-65
2022/03/19 02:09:58;;;;;;;;;58.25;46.25;;;;;6.27;28.07;101126.25;6314895;27;96477;-66
2022/03/19 02:13:01;;;;;;;;;59.60;46.00;;;;;6.23;27.89;101127.53;6314527;27;97421;-67
2022/03/19 02:16:05;;;;;;;;;62.00;48.00;;;;;6.24;28.24;101123.88;6296179;27;96361;-67
2022/03/19 02:19:10;;;;;;;;;58.60;44.60;;;;;6.25;28.17;101128.25;6295377;27;97181;-65
2022/03/19 02:22:15;;;;;;;;;57.00;46.00;;;;;6.19;28.05;101134.16;6293424;27;97786;-65
2022/03/19 02:25:37;;;;;;;;;56.75;44.00;;;;;6.17;28.10;101137.94;6312289;27;97005;-67
2022/03/19 02:28:40;;;;;;;;;56.00;43.00;;;;;6.13;27.94;101139.19;6312782;27;97306;-67
2022/03/19 02:31:45;;;;;;;;;56.00;42.60;;;;;6.11;27.72;101141.19;6312592;27;96910;-65
2022/03/19 02:34:49;;;;;;;;;51.00;41.00;;;;;6.16;27.79;101136.25;6312976;27;97404;-66
2022/03/19 02:37:52;;;;;;;;;54.40;42.00;;;;;6.06;27.78;101130.88;6312926;27;96945;-67
2022/03/19 02:40:57;;;;;;;;;52.40;42.00;;;;;6.08;27.86;101137.78;6313737;27;97920;-67
2022/03/19 02:44:00;;;;;;;;;56.60;42.80;;;;;6.01;28.01;101127.78;6314344;27;96520;-65
2022/03/19 02:47:07;;;;;;;;;50.00;41.00;;;;;6.01;28.09;101128.59;6313801;27;96482;-66
2022/03/19 02:50:10;;;;;;;;;54.60;42.20;;;;;5.95;28.33;101123.81;6294883;27;99624;-67
2022/03/19 02:53:13;;;;;;;;;53.80;41.60;;;;;5.92;28.33;101128.56;6294174;27;97381;-65
2022/03/19 02:56:18;;;;;;;;;52.00;41.00;;;;;5.96;28.41;101135.38;6313436;27;97450;-66
2022/03/19 02:59:23;;;;;;;;;49.60;40.00;;;;;5.99;28.13;101135.94;6294831;27;96528;-68
2022/03/19 03:02:26;;;;;;;;;51.50;40.50;;;;;5.92;28.43;101137.47;6313603;27;97446;-65
2022/03/19 03:05:29;;;;;;;;;51.00;40.25;;;;;5.82;28.49;101144.59;6293994;27;97756;-66
2022/03/19 03:08:33;;;;;;;;;54.60;42.00;;;;;5.77;28.88;101135.25;6293299;27;96453;-67
2022/03/19 03:11:39;;;;;;;;;52.00;42.00;;;;;5.65;28.98;101140.75;6313815;27;96895;-67
2022/03/19 03:14:42;;;;;;;;;51.50;41.00;;;;;5.57;29.00;101142.41;6313593;27;96651;-65
2022/03/19 03:17:46;;;;;;;;;54.40;41.00;;;;;5.56;29.37;101138.03;6281395;27;96807;-67
2022/03/19 03:20:49;;;;;;;;;56.00;43.00;;;;;5.49;29.35;101134.19;6313290;27;96577;-66
2022/03/19 03:23:52;;;;;;;;;55.20;43.40;;;;;5.39;29.65;101134.13;6295327;27;96482;-67
2022/03/19 03:26:57;;;;;;;;;54.00;42.60;;;;;5.44;29.45;101139.09;6294535;27;97196;-65
2022/03/19 03:30:00;;;;;;;;;51.50;41.00;;;;;5.41;29.61;101129.53;6313348;27;97607;-66
2022/03/19 03:33:04;;;;;;;;;55.00;43.00;;;;;5.34;29.70;101132.84;6312778;27;97378;-65
2022/03/19 03:36:07;;;;;;;;;58.00;44.00;;;;;5.31;29.91;101136.66;6313430;27;96884;-66
2022/03/19 03:39:11;;;;;;;;;52.00;41.40;;;;;5.06;30.22;101108.50;6293218;27;98357;-67
2022/03/19 03:42:17;;;;;;;;;55.00;43.00;;;;;5.19;30.29;101133.19;6312014;27;96586;-68
2022/03/19 03:45:21;;;;;;;;;52.80;43.60;;;;;5.15;30.33;101136.28;6292340;27;96999;-67
2022/03/19 03:48:24;;;;;;;;;53.60;43.60;;;;;5.16;30.43;101133.47;6292732;27;99230;-68
2022/03/19 03:51:27;;;;;;;;;56.40;44.00;;;;;5.05;30.56;101130.00;6313022;27;97476;-67
2022/03/19 03:54:31;;;;;;;;;56.40;42.80;;;;;5.02;30.66;101144.50;6294099;27;98512;-65
2022/03/19 03:57:37;;;;;;;;;56.50;44.00;;;;;5.02;30.96;101139.16;6309701;27;97251;-66
2022/03/19 04:00:40;;;;;;;;;58.20;45.00;;;;;5.01;31.01;101137.47;6296042;27;97210;-67
2022/03/19 04:03:43;;;;;;;;;55.25;42.75;;;;;4.77;31.52;101134.19;6288237;27;96881;-66
2022/03/19 04:06:46;;;;;;;;;56.40;44.00;;;;;4.78;31.48;101130.56;6290244;27;98410;-67
2022/03/19 04:09:50;;;;;;;;;56.40;43.60;;;;;4.73;31.41;101130.09;6304566;27;97207;-66
2022/03/19 04:12:55;;;;;;;;;56.40;43.00;;;;;4.58;31.75;101128.72;6304250;27;96621;-67
2022/03/19 04:15:58;;;;;;;;;54.50;45.00;;;;;4.71;31.49;101134.72;6287763;27;96799;-66
2022/03/19 04:19:01;;;;;;;;;54.80;43.00;;;;;4.75;31.70;101137.00;6309525;27;97822;-67
2022/03/19 04:22:07;;;;;;;;;59.00;44.00;;;;;4.76;31.40;101145.88;6310077;27;98115;-66
2022/03/19 04:25:12;;;;;;;;;52.00;42.00;;;;;4.75;31.50;101149.50;6292116;27;96712;-67
2022/03/19 04:28:17;;;;;;;;;54.60;44.00;;;;;4.70;31.52;101154.38;6290876;27;97200;-69
2022/03/19 04:31:20;;;;;;;;;53.00;43.00;;;;;4.70;31.25;101157.06;6310360;27;96966;-67
2022/03/19 04:34:24;;;;;;;;;54.40;41.60;;;;;4.68;31.18;101159.03;6292822;27;97380;-67
2022/03/19 04:37:27;;;;;;;;;51.20;41.60;;;;;4.65;31.48;101156.59;6293599;27;99691;-66
2022/03/19 04:40:30;;;;;;;;;55.25;42.00;;;;;4.65;31.51;101156.59;6311255;27;97457;-67
2022/03/19 04:43:35;;;;;;;;;54.80;41.20;;;;;4.70;31.48;101162.41;6293744;27;97404;-68
2022/03/19 04:46:39;;;;;;;;;53.00;42.75;;;;;4.66;31.22;101160.97;6311678;27;96432;-68
2022/03/19 04:49:42;;;;;;;;;56.00;44.00;;;;;4.67;31.44;101166.19;6310285;27;97531;-67
2022/03/19 04:52:46;;;;;;;;;54.00;43.00;;;;;4.61;31.88;101172.03;6310423;27;97058;-67
2022/03/19 04:55:50;;;;;;;;;56.40;44.00;;;;;4.64;31.63;101181.66;6309892;27;97519;-67
2022/03/19 04:58:58;;;;;;;;;57.00;44.00;;;;;4.64;31.74;101174.44;6292396;27;96586;-65
2022/03/19 05:02:01;;;;;;;;;55.25;44.25;;;;;4.67;31.35;101176.03;6310155;27;97483;-67
2022/03/19 05:05:06;;;;;;;;;58.00;46.00;;;;;4.68;31.58;101175.91;6310724;27;96646;-67
2022/03/19 05:08:09;;;;;;;;;60.40;45.00;;;;;4.57;31.68;101169.75;6310421;27;97422;-67
2022/03/19 05:11:16;;;;;;;;;62.00;45.75;;;;;4.60;31.99;101172.16;6311042;27;98155;-67
2022/03/19 05:14:21;;;;;;;;;57.40;44.00;;;;;4.62;31.62;101170.22;6311517;27;97515;-65
2022/03/19 05:17:24;;;;;;;;;54.60;44.00;;;;;4.55;32.18;101175.22;6309436;27;98430;-66
2022/03/19 05:20:28;;;;;;;;;58.80;43.80;;;;;4.62;31.71;101167.56;6292228;27;97097;-68
2022/03/19 05:23:32;;;;;;;;;58.20;44.00;;;;;4.66;31.89;101169.84;6314501;27;96998;-65
2022/03/19 05:26:37;;;;;;;;;55.60;44.60;;;;;4.76;31.66;101172.59;6297170;27;96712;-65
2022/03/19 05:29:41;;;;;;;;;56.40;44.00;;;;;4.82;31.73;101188.13;6315278;27;97505;-67
2022/03/19 05:32:45;;;;;;;;;57.00;44.20;;;;;4.92;31.38;101188.19;6310952;27;99406;-66
2022/03/19 05:35:48;;;;;;;;;56.00;45.00;;;;;5.07;31.13;101178.88;6315278;27;98159;-68
2022/03/19 05:38:52;;;;;;;;;53.00;43.00;;;;;5.14;31.28;101182.69;6312941;27;97179;-67
2022/03/19 05:41:55;;;;;;;;;58.00;45.00;;;;;5.30;31.25;101198.28;6270744;27;97875;-65
2022/03/19 05:45:00;;;;;;;;;56.00;46.00;;;;;5.18;31.07;101174.28;6280111;27;97455;-66
2022/03/19 05:48:04;;;;;;;;;56.00;44.00;;;;;5.49;30.79;101209.09;6314319;27;97252;-67
2022/03/19 05:51:07;;;;;;;;;57.60;46.00;;;;;5.54;30.77;101215.75;6314833;27;97403;-65
2022/03/19 05:54:12;;;;;;;;;57.80;44.80;;;;;5.66;30.53;101217.38;6315319;27;96444;-68
2022/03/19 05:57:16;;;;;;;;;59.80;45.80;;;;;5.59;30.49;101197.47;6276978;27;98324;-65
2022/03/19 06:00:21;;;;;;;;;56.20;44.80;;;;;5.83;30.54;101218.56;6293747;27;97874;-65
2022/03/19 06:03:24;;;;;;;;;54.67;44.00;;;;;5.99;30.28;101221.63;6305844;27;96508;-66
2022/03/19 06:06:29;;;;;;;;;57.00;45.00;;;;;6.00;30.44;101222.47;6310016;27;96611;-67
2022/03/19 06:09:32;;;;;;;;;55.40;43.00;;;;;6.06;30.26;101222.75;6294549;27;97223;-66
2022/03/19 06:12:35;;;;;;;;;57.25;45.25;;;;;6.12;30.12;101217.84;6314353;27;96955;-67
2022/03/19 06:15:40;;;;;;;;;61.25;46.00;;;;;6.21;30.01;101220.56;6315169;27;97208;-66
2022/03/19 06:18:46;;;;;;;;;61.00;46.50;;;;;6.37;29.50;101220.03;6295979;27;99465;-67
2022/03/19 06:21:49;;;;;;;;;55.00;44.00;;;;;6.47;29.46;101228.94;6284183;27;96851;-65
2022/03/19 06:24:52;;;;;;;;;57.60;44.00;;;;;6.60;29.59;101229.53;6314435;27;97062;-65
2022/03/19 06:27:56;;;;;;;;;56.50;43.50;;;;;6.56;29.44;101230.78;6288887;27;98502;-67
2022/03/19 06:31:00;;;;;;;;;55.60;44.00;;;;;6.62;29.22;101234.75;6312622;27;96902;-67
2022/03/19 06:34:04;;;;;;;;;56.00;43.60;;;;;6.70;29.19;101233.06;6313192;27;96949;-67
2022/03/19 06:37:22;;;;;;;;;52.50;42.00;;;;;6.71;29.12;101231.22;6293552;27;99575;-67
2022/03/19 06:40:26;;;;;;;;;56.00;44.00;;;;;7.05;28.98;101228.97;6313398;27;97372;-66
2022/03/19 06:43:29;;;;;;;;;56.20;44.00;;;;;7.08;28.73;101231.41;6309445;27;97933;-67
2022/03/19 06:46:34;;;;;;;;;56.50;44.00;;;;;7.48;28.45;101233.88;6294848;27;98528;-65
2022/03/19 06:49:37;;;;;;;;;53.80;43.60;;;;;7.60;28.33;101232.72;6264044;27;96953;-65
2022/03/19 06:52:42;;;;;;;;;56.00;44.00;;;;;7.89;27.95;101229.91;6295537;27;97596;-66
2022/03/19 06:55:45;;;;;;;;;57.00;45.25;;;;;8.27;27.76;101237.81;6313134;27;97473;-66
2022/03/19 06:58:48;;;;;;;;;58.80;46.00;;;;;8.64;27.39;101235.94;6313699;27;98065;-65
2022/03/19 07:01:53;;;;;;;;;62.00;48.00;;;;;9.07;26.81;101237.84;6312230;27;97068;-67
2022/03/19 07:04:58;;;;;;;;;60.00;46.00;;;;;9.42;26.48;101236.09;6313103;27;96412;-66
2022/03/19 07:08:02;;;;;;;;;57.80;46.00;;;;;9.86;25.95;101235.06;6313230;27;96585;-67
2022/03/19 07:11:06;;;;;;;;;63.00;48.00;;;;;10.20;25.32;101237.78;6294501;27;98093;-65
2022/03/19 07:14:10;;;;;;;;;61.40;45.00;;;;;10.37;25.11;101234.13;6311617;27;97459;-66
2022/03/19 07:17:16;;;;;;;;;58.60;46.60;;;;;10.92;24.85;101227.34;6308581;27;97444;-67
2022/03/19 07:20:21;;;;;;;;;56.60;46.00;;;;;11.26;24.42;101230.72;6285491;27;99377;-66
2022/03/19 07:23:25;;;;;;;;;61.40;47.00;;;;;11.61;24.38;101234.91;6287596;27;97203;-66
2022/03/19 07:26:32;;;;;;;;;60.20;47.00;;;;;11.93;24.04;101229.47;6285178;27;97707;-66
2022/03/19 07:29:36;;;;;;;;;60.00;46.50;;;;;12.25;23.64;101228.50;6287518;27;96464;-66
2022/03/19 07:32:40;;;;;;;;;60.00;45.25;;;;;12.51;22.89;101233.63;6293939;27;97619;-67
2022/03/19 07:35:44;;;;;;;;;60.50;47.00;;;;;12.83;22.93;101224.47;6294512;27;97503;-67
2022/03/19 07:38:48;;;;;;;;;56.00;45.00;;;;;13.31;22.41;101226.84;6309920;27;98506;-66
2022/03/19 07:41:52;;;;;;;;;57.20;45.00;;;;;13.56;21.51;101216.59;6292740;27;97509;-65
2022/03/19 07:45:03;;;;;;;;;59.80;47.80;;;;;14.11;21.43;101218.03;6311165;27;96772;-67
2022/03/19 07:48:09;;;;;;;;;61.00;46.40;;;;;14.75;20.69;101224.50;6311903;27;96976;-67
2022/03/19 07:51:29;;;;;;;;;56.00;45.60;;;;;15.30;20.04;101212.06;6294424;27;96884;-67
2022/03/19 07:54:33;;;;;;;;;59.50;46.00;;;;;15.91;19.48;101224.09;6312661;27;97530;-69
2022/03/19 07:57:36;;;;;;;;;54.60;43.00;;;;;16.20;18.98;101218.38;6313035;27;97176;-67
2022/03/19 08:00:40;;;;;;;;;52.80;43.00;;;;;16.40;18.62;101222.03;6312926;27;97092;-67
2022/03/19 08:03:45;;;;;;;;;53.00;42.00;;;;;16.83;18.96;101224.50;6312425;27;96624;-67
2022/03/19 08:06:53;;;;;;;;;52.40;41.00;;;;;17.17;17.84;101229.81;6312728;27;97443;-68
2022/03/19 08:09:59;;;;;;;;;52.40;41.40;;;;;16.94;17.80;101223.06;6309632;27;96470;-67
2022/03/19 08:13:04;;;;;;;;;52.60;41.80;;;;;16.96;17.96;101227.25;6312119;27;96700;-69
2022/03/19 08:16:09;;;;;;;;;50.00;41.00;;;;;17.01;17.51;101229.38;6312120;27;96420;-68
2022/03/19 08:19:14;;;;;;;;;48.50;39.00;;;;;16.51;17.54;101231.53;6293661;27;96628;-69
2022/03/19 08:22:18;;;;;;;;;50.00;39.00;;;;;16.66;17.62;101223.22;6288293;27;97988;-68
2022/03/19 08:25:21;;;;;;;;;46.75;38.75;;;;;16.93;17.59;101229.56;6294070;27;98330;-67
2022/03/19 08:28:25;;;;;;;;;48.25;39.00;;;;;17.40;17.09;101226.69;6293894;27;97479;-68
2022/03/19 08:31:28;;;;;;;;;48.80;38.20;;;;;17.89;17.13;101218.06;6293106;27;98449;-68
2022/03/19 08:34:33;;;;;;;;;46.60;38.00;;;;;18.52;16.93;101210.91;6308274;27;97434;-67
2022/03/19 08:37:37;;;;;;;;;43.60;35.00;;;;;18.74;15.58;101216.94;6274729;27;99492;-67
2022/03/19 08:40:39;;;;;;;;;45.40;36.00;;;;;18.74;15.71;101214.22;6293024;27;98736;-68
2022/03/19 08:43:44;;;;;;;;;42.60;33.00;;;;;19.07;14.93;101211.28;6285460;27;97678;-68
2022/03/19 08:46:47;;;;;;;;;45.75;35.00;;;;;19.62;15.41;101206.03;6286910;27;96409;-68
2022/03/19 08:49:52;;;;;;;;;43.00;35.50;;;;;19.39;14.40;101209.38;6292930;27;98126;-67
2022/03/19 08:52:55;;;;;;;;;44.80;35.80;;;;;18.89;15.18;101220.22;6292358;27;97943;-68
2022/03/19 08:55:58;;;;;;;;;42.00;35.00;;;;;18.93;15.38;101220.63;6293917;27;96920;-68
2022/03/19 08:59:02;;;;;;;;;44.60;35.60;;;;;19.07;15.38;101218.63;6297069;27;97583;-69
2022/03/19 09:02:06;;;;;;;;;42.00;35.00;;;;;19.43;15.05;101216.06;6308120;27;96999;-68
2022/03/19 09:05:12;;;;;;;;;36.60;33.00;;;;;19.95;14.69;101203.78;6315561;27;97026;-68
2022/03/19 09:08:16;;;;;;;;;41.00;33.00;;;;;20.20;14.32;101199.09;6295928;27;98585;-68
2022/03/19 09:11:20;;;;;;;;;42.00;35.00;;;;;20.27;14.10;101201.75;6303567;27;98618;-67
2022/03/19 09:14:24;;;;;;;;;40.80;34.00;;;;;20.77;13.95;101203.22;6315766;27;97529;-70
2022/03/19 09:17:27;;;;;;;;;42.00;34.00;;;;;20.64;13.53;101210.78;6315734;27;97414;-69
2022/03/19 09:20:32;;;;;;;;;41.00;33.60;;;;;20.69;13.47;101209.03;6316229;27;96446;-70
2022/03/19 09:23:35;;;;;;;;;38.80;31.80;;;;;20.99;13.78;101213.66;6292222;27;98417;-68
2022/03/19 09:26:39;;;;;;;;;38.60;33.00;;;;;20.16;13.36;101224.41;6296613;27;96964;-70
2022/03/19 09:29:43;;;;;;;;;38.00;32.40;;;;;20.40;13.99;101209.00;6316177;27;96932;-68
2022/03/19 09:32:46;;;;;;;;;45.40;35.00;;;;;20.66;13.69;101211.41;6314984;27;96758;-68
2022/03/19 09:36:09;;;;;;;;;38.50;32.75;;;;;20.97;13.10;101218.53;6316162;27;96421;-69
2022/03/19 09:39:12;;;;;;;;;40.50;33.50;;;;;21.20;12.94;101209.59;6308525;27;97501;-68
2022/03/19 09:42:16;;;;;;;;;39.20;32.80;;;;;21.52;12.95;101214.53;6295996;27;99810;-69
2022/03/19 09:45:20;;;;;;;;;38.80;32.80;;;;;21.20;12.87;101215.06;6296507;27;97487;-69
2022/03/19 09:48:24;;;;;;;;;37.67;32.00;;;;;21.09;12.77;101211.19;6296300;27;98421;-70
2022/03/19 09:51:33;;;;;;;;;40.50;32.75;;;;;21.26;13.21;101203.16;6296581;27;98455;-68
2022/03/19 09:54:36;;;;;;;;;38.80;33.60;;;;;21.23;12.98;101198.97;6315724;27;97120;-70
2022/03/19 09:57:39;;;;;;;;;41.00;35.00;;;;;21.45;12.97;101204.75;6315831;27;96699;-70
2022/03/19 10:00:44;;;;;;;;;38.00;32.00;;;;;21.43;12.58;101199.47;6314419;27;97130;-68
2022/03/19 10:03:49;;;;;;;;;38.20;32.60;;;;;21.77;12.26;101186.84;6296004;27;96913;-68
2022/03/19 10:10:18;;;;;;;;;34.00;30.00;;;;;22.09;12.49;101195.53;6314039;27;96975;-68
2022/03/19 10:13:22;;;;;;;;;29.00;27.25;;;;;22.34;11.50;101187.00;6279045;27;100549;-67
2022/03/19 10:16:28;;;;;;;;;36.00;30.00;;;;;22.27;11.29;101186.31;6310952;27;97490;-69
2022/03/19 10:19:32;;;;;;;;;32.60;29.80;;;;;22.47;11.09;101186.75;6294965;27;96691;-69
2022/03/19 10:22:40;;;;;;;;;30.00;26.25;;;;;22.48;10.84;101183.72;6312872;27;96553;-67
2022/03/19 10:25:45;;;;;;;;;28.00;27.00;;;;;22.35;10.47;101178.53;6297878;27;97365;-69
2022/03/19 10:28:57;;;;;;;;;26.75;25.00;;;;;22.77;10.59;101186.53;6308390;27;97270;-70
2022/03/19 10:32:04;;;;;;;;;34.00;29.00;;;;;22.95;10.52;101169.81;6296528;27;96946;-68
2022/03/19 10:35:26;;;;;;;;;33.20;29.00;;;;;23.00;10.78;101183.66;6314540;27;96541;-68
2022/03/19 10:38:40;;;;;;;;;29.20;27.20;;;;;23.35;10.88;101175.19;6289682;27;97425;-68
2022/03/19 10:41:43;;;;;;;;;29.60;25.60;;;;;23.76;10.83;101168.41;6289273;27;97074;-67
2022/03/19 10:44:49;;;;;;;;;28.00;25.50;;;;;24.00;9.87;101182.78;6289043;27;97502;-69
2022/03/19 10:47:58;;;;;;;;;26.50;25.00;;;;;24.07;10.32;101175.19;6292945;27;98181;-69
2022/03/19 10:51:02;;;;;;;;;27.40;25.00;;;;;24.35;9.79;101168.66;6297286;27;97616;-71
2022/03/19 10:54:14;;;;;;;;;26.00;24.40;;;;;23.50;9.34;101171.88;6288397;27;98057;-69
2022/03/19 10:57:17;;;;;;;;;23.60;22.00;;;;;23.51;10.48;101168.00;6298212;27;96851;-70
2022/03/19 11:00:20;;;;;;;;;21.75;20.25;;;;;23.79;9.69;101151.38;6295099;27;96995;-68
2022/03/19 11:03:28;;;;;;;;;23.00;22.00;;;;;23.67;9.59;101169.91;6295212;27;98312;-70
2022/03/19 11:06:35;;;;;;;;;23.20;21.20;;;;;23.20;10.00;101153.75;6278441;27;97219;-69
2022/03/19 11:09:41;;;;;;;;;24.60;21.00;;;;;23.06;9.84;101152.41;6294589;27;97070;-69
2022/03/19 11:12:50;;;;;;;;;23.50;22.50;;;;;22.64;9.97;101160.13;6314449;27;96442;-70
2022/03/19 11:15:56;;;;;;;;;26.50;23.00;;;;;22.60;9.97;101138.88;6313420;27;96517;-70
2022/03/19 11:19:01;;;;;;;;;24.40;23.40;;;;;22.36;10.00;101144.47;6281494;27;97229;-70
2022/03/19 11:22:05;;;;;;;;;22.00;19.00;;;;;22.47;10.23;101145.50;6261962;27;97476;-70
2022/03/19 11:25:17;;;;;;;;;23.00;21.00;;;;;22.54;9.38;101137.94;6295663;27;97811;-70
2022/03/19 11:28:21;;;;;;;;;19.00;18.00;;;;;22.62;9.59;101145.81;6292418;27;98161;-70
2022/03/19 11:31:27;;;;;;;;;21.80;19.80;;;;;23.14;9.94;101145.66;6293844;27;97758;-70
2022/03/19 11:34:44;;;;;;;;;18.25;16.00;;;;;23.27;9.52;101142.56;6295695;27;98192;-68
2022/03/19 11:37:59;;;;;;;;;19.00;18.00;;;;;23.59;9.33;101140.06;6309255;27;96701;-68
2022/03/19 11:41:19;;;;;;;;;18.75;18.00;;;;;23.50;9.04;101131.41;6312199;27;97119;-69
2022/03/19 11:44:24;;;;;;;;;20.00;19.00;;;;;23.17;9.26;101129.47;6313871;27;96510;-67
2022/03/19 11:47:34;;;;;;;;;21.00;21.00;;;;;23.07;8.99;101111.94;6293749;27;96560;-69
2022/03/19 11:50:42;;;;;;;;;23.00;21.60;;;;;23.42;9.67;101131.78;6313285;27;97624;-69
2022/03/19 11:53:56;;;;;;;;;21.00;19.00;;;;;22.35;9.88;101125.47;6312925;27;97612;-69
2022/03/19 11:57:08;;;;;;;;;20.60;19.20;;;;;21.33;10.16;101124.31;6286990;27;97131;-70
2022/03/19 12:00:14;;;;;;;;;19.25;17.25;;;;;21.06;10.68;101093.72;6305796;27;97231;-68
2022/03/19 12:03:24;;;;;;;;;26.75;22.00;;;;;21.81;10.88;101132.25;6294040;27;96905;-72
2022/03/19 12:06:32;;;;;;;;;22.40;20.40;;;;;22.09;10.45;101109.56;6292576;27;96931;-69
2022/03/19 12:10:01;;;;;;;;;26.00;22.60;;;;;22.38;10.99;101114.00;6313187;27;96771;-69
2022/03/19 12:13:37;;;;;;;;;25.00;22.00;;;;;22.63;10.62;101097.13;6293816;27;96894;-69
2022/03/19 12:16:45;;;;;;;;;21.40;20.00;;;;;23.03;10.14;101111.63;6308906;27;97965;-67
2022/03/19 12:19:54;;;;;;;;;23.00;21.40;;;;;22.75;10.44;101108.94;6312814;27;98034;-69
2022/03/19 12:22:58;;;;;;;;;25.20;22.80;;;;;22.61;10.88;101122.13;6313573;27;97471;-68
2022/03/19 12:26:04;;;;;;;;;28.00;25.25;;;;;22.16;10.61;101110.25;6311120;27;97405;-69
2022/03/19 12:29:10;;;;;;;;;29.00;25.60;;;;;21.72;11.04;101103.50;6286793;27;97303;-69
2022/03/19 12:32:15;;;;;;;;;28.20;25.60;;;;;21.48;11.01;101108.19;6313691;27;97024;-68
2022/03/19 12:35:19;;;;;;;;;24.50;22.00;;;;;20.91;11.31;101074.16;6298372;27;97680;-67
2022/03/19 12:38:28;;;;;;;;;24.20;22.20;;;;;21.28;10.93;101107.72;6297704;27;98056;-68
2022/03/19 12:41:33;;;;;;;;;23.60;22.00;;;;;21.69;10.96;101104.00;6307619;27;97008;-69
2022/03/19 12:44:59;;;;;;;;;24.25;22.00;;;;;21.57;11.26;101098.50;6312975;27;96905;-69
2022/03/19 12:48:08;;;;;;;;;23.00;22.00;;;;;21.50;11.48;101075.88;6311203;27;96991;-70
2022/03/19 12:51:11;;;;;;;;;24.00;22.00;;;;;21.82;11.26;101103.72;6316110;27;96941;-68
2022/03/19 12:54:24;;;;;;;;;21.00;19.00;;;;;21.46;11.44;101094.69;6298476;27;97472;-69
2022/03/19 12:57:33;;;;;;;;;22.00;19.60;;;;;21.17;11.11;101106.63;6316119;27;97665;-67
2022/03/19 13:00:37;;;;;;;;;22.00;21.00;;;;;20.36;11.72;101099.03;6297110;27;96803;-66
2022/03/19 13:03:42;;;;;;;;;20.40;18.00;;;;;19.77;11.72;101097.03;6316535;27;96982;-68
2022/03/19 13:06:45;;;;;;;;;19.00;19.00;;;;;19.60;11.48;101093.19;6313281;27;97525;-68
2022/03/19 13:09:49;;;;;;;;;19.00;18.00;;;;;19.29;11.88;101096.88;6297602;27;96986;-69
2022/03/19 13:13:04;;;;;;;;;19.50;18.00;;;;;19.08;12.56;101089.06;6294435;27;98575;-68
2022/03/19 13:16:09;;;;;;;;;24.00;22.00;;;;;19.15;12.39;101104.38;6316047;27;97518;-66
2022/03/19 13:19:14;;;;;;;;;22.00;20.40;;;;;19.18;12.22;101101.19;6315835;27;97122;-69
2022/03/19 13:22:20;;;;;;;;;19.20;17.20;;;;;18.97;12.20;101096.94;6311701;27;96683;-67
2022/03/19 13:25:26;;;;;;;;;20.60;19.00;;;;;18.99;11.88;101102.19;6315900;27;96988;-66
2022/03/19 13:28:30;;;;;;;;;22.00;20.00;;;;;18.94;12.30;101102.84;6316371;27;96396;-66
2022/03/19 13:31:53;;;;;;;;;20.75;18.75;;;;;19.02;12.27;101107.19;6278917;27;97431;-66
2022/03/19 13:35:00;;;;;;;;;21.60;17.00;;;;;19.28;12.49;101100.66;6310073;27;97322;-68
2022/03/19 13:38:09;;;;;;;;;20.00;20.00;;;;;19.20;11.71;101111.91;6296414;27;96796;-68
2022/03/19 13:41:18;;;;;;;;;23.75;22.00;;;;;19.13;11.75;101087.34;6296909;27;97335;-68
2022/03/19 13:44:30;;;;;;;;;18.25;18.00;;;;;18.99;11.61;101086.63;6315006;27;97699;-69
2022/03/19 13:47:37;;;;;;;;;18.00;15.20;;;;;19.09;11.64;101098.94;6314371;27;97262;-66
2022/03/19 13:50:57;;;;;;;;;16.00;15.00;;;;;18.70;10.79;101089.16;6314338;27;96628;-69
2022/03/19 13:54:00;;;;;;;;;13.50;13.00;;;;;18.59;11.19;101090.72;6295790;27;97063;-67
2022/03/19 13:57:05;;;;;;;;;17.00;16.00;;;;;18.12;11.31;101073.75;6294059;27;96704;-67
2022/03/19 14:00:14;;;;;;;;;19.40;16.40;;;;;18.33;11.69;101085.38;6313414;27;97602;-66
2022/03/19 14:03:24;;;;;;;;;14.80;13.20;;;;;18.09;11.71;101093.28;6314100;27;97067;-67
2022/03/19 14:06:34;;;;;;;;;17.40;15.60;;;;;17.92;11.85;101080.34;6261288;27;100032;-65
2022/03/19 14:09:44;;;;;;;;;16.50;15.00;;;;;18.09;12.31;101093.28;6313141;27;97100;-68
2022/03/19 14:12:49;;;;;;;;;17.00;16.00;;;;;18.23;12.31;101085.84;6315669;27;96278;-68